createdAt,value
2022-12-15T00:00:58.747Z,-1.66
2022-12-15T00:02:20.436Z,-1.65
2022-12-15T00:03:42.302Z,-1.64
2022-12-15T00:05:03.633Z,-1.61
2022-12-15T00:06:24.855Z,-1.60
2022-12-15T00:07:46.583Z,-1.61
2022-12-15T00:09:13.906Z,-1.64
2022-12-15T00:10:31.647Z,-1.67
2022-12-15T00:11:53.145Z,-1.72
2022-12-15T00:13:16.039Z,-1.77
2022-12-15T00:14:37.250Z,-1.82
2022-12-15T00:15:58.777Z,-1.85
2022-12-15T00:17:20.166Z,-1.91
2022-12-15T00:18:41.859Z,-1.97
2022-12-15T00:20:03.444Z,-2.02
2022-12-15T00:21:24.821Z,-2.07
2022-12-15T00:22:47.010Z,-2.12
2022-12-15T00:24:08.467Z,-2.14
2022-12-15T00:25:30.167Z,-2.16
2022-12-15T00:26:51.792Z,-2.16
2022-12-15T00:28:16.021Z,-2.15
2022-12-15T00:29:37.293Z,-2.12
2022-12-15T00:31:02.313Z,-2.09
2022-12-15T00:32:22.189Z,-2.09
2022-12-15T00:33:43.801Z,-2.11
2022-12-15T00:35:05.347Z,-2.14
2022-12-15T00:36:27.527Z,-2.17
2022-12-15T00:37:49.057Z,-2.19
2022-12-15T00:38:52.163Z,-2.21
2022-12-15T00:39:57.194Z,-2.25
2022-12-15T00:41:01.527Z,-2.28
2022-12-15T00:42:04.724Z,-2.30
2022-12-15T00:43:10.021Z,-2.31
2022-12-15T00:44:17.314Z,-2.29
2022-12-15T00:45:18.634Z,-2.25
2022-12-15T00:46:40.287Z,-2.20
2022-12-15T00:47:43.423Z,-2.16
2022-12-15T00:48:47.276Z,-2.12
2022-12-15T00:50:09.042Z,-2.08
2022-12-15T00:51:12.840Z,-2.03
2022-12-15T00:52:35.396Z,-2.01
2022-12-15T00:53:57.048Z,-1.98
2022-12-15T00:55:18.629Z,-1.96
2022-12-15T00:56:40.181Z,-1.93
2022-12-15T00:58:01.709Z,-1.92
2022-12-15T00:59:23.327Z,-1.89
2022-12-15T01:00:45.099Z,-1.88
2022-12-15T01:02:06.891Z,-1.87
2022-12-15T01:03:38.258Z,-1.86
2022-12-15T01:04:59.765Z,-1.85
2022-12-15T01:06:26.081Z,-1.86
2022-12-15T01:07:49.622Z,-1.87
2022-12-15T01:09:10.935Z,-1.88
2022-12-15T01:10:33.083Z,-1.89
2022-12-15T01:11:54.495Z,-1.89
2022-12-15T01:13:15.904Z,-1.89
2022-12-15T01:14:37.341Z,-1.89
2022-12-15T01:15:58.980Z,-1.90
2022-12-15T01:17:20.778Z,-1.89
2022-12-15T01:18:42.282Z,-1.89
2022-12-15T01:20:04.010Z,-1.89
2022-12-15T01:21:08.330Z,-1.87
2022-12-15T01:22:11.488Z,-1.87
2022-12-15T01:23:14.667Z,-1.85
2022-12-15T01:24:17.950Z,-1.84
2022-12-15T01:25:24.241Z,-1.83
2022-12-15T01:26:27.325Z,-1.81
2022-12-15T01:27:30.472Z,-1.79
2022-12-15T01:28:33.635Z,-1.80
2022-12-15T01:29:36.663Z,-1.80
2022-12-15T01:30:39.868Z,-1.80
2022-12-15T01:31:43.402Z,-1.79
2022-12-15T01:32:46.779Z,-1.78
2022-12-15T01:33:53.881Z,-1.77
2022-12-15T01:34:56.841Z,-1.75
2022-12-15T01:36:01.445Z,-1.73
2022-12-15T01:37:04.645Z,-1.72
2022-12-15T01:38:08.363Z,-1.70
2022-12-15T01:39:11.705Z,-1.69
2022-12-15T01:40:35.454Z,-1.68
2022-12-15T01:41:38.557Z,-1.68
2022-12-15T01:42:41.686Z,-1.68
2022-12-15T01:43:45.723Z,-1.69
2022-12-15T01:44:52.595Z,-1.70
2022-12-15T01:45:59.284Z,-1.69
2022-12-15T01:47:02.432Z,-1.70
2022-12-15T01:48:08.819Z,-1.71
2022-12-15T01:49:24.017Z,-1.73
2022-12-15T01:50:29.235Z,-1.73
2022-12-15T01:51:35.158Z,-1.74
2022-12-15T01:52:38.135Z,-1.75
2022-12-15T01:53:56.796Z,-1.74
2022-12-15T01:54:59.873Z,-1.75
2022-12-15T01:56:05.467Z,-1.76
2022-12-15T01:57:13.411Z,-1.77
2022-12-15T01:58:17.827Z,-1.78
2022-12-15T01:59:24.564Z,-1.79
2022-12-15T02:00:28.136Z,-1.78
2022-12-15T02:01:31.315Z,-1.79
2022-12-15T02:02:40.435Z,-1.80
2022-12-15T02:03:43.660Z,-1.79
2022-12-15T02:05:42.090Z,-1.79
2022-12-15T02:07:06.630Z,-1.80
2022-12-15T02:08:10.810Z,-1.84
2022-12-15T02:09:14.804Z,-1.86
2022-12-15T02:10:17.866Z,-1.86
2022-12-15T02:11:42.997Z,-1.85
2022-12-15T02:12:58.182Z,-1.86
2022-12-15T02:14:04.330Z,-1.86
2022-12-15T02:15:16.974Z,-1.86
2022-12-15T02:16:46.419Z,-1.86
2022-12-15T02:18:01.800Z,-1.86
2022-12-15T02:19:29.194Z,-1.86
2022-12-15T02:20:54.130Z,-1.88
2022-12-15T02:22:18.351Z,-1.90
2022-12-15T02:23:31.120Z,-1.93
2022-12-15T02:24:40.655Z,-1.94
2022-12-15T02:25:50.822Z,-1.97
2022-12-15T02:27:15.704Z,-1.99
2022-12-15T02:28:38.936Z,-2.01
2022-12-15T02:30:04.802Z,-2.02
2022-12-15T02:31:38.703Z,-2.05
2022-12-15T02:32:48.022Z,-2.06
2022-12-15T02:33:54.447Z,-2.09
2022-12-15T02:35:06.534Z,-2.09
2022-12-15T02:36:31.411Z,-2.09
2022-12-15T02:37:36.879Z,-2.10
2022-12-15T02:38:44.478Z,-2.11
2022-12-15T02:39:47.867Z,-2.12
2022-12-15T02:41:02.742Z,-2.11
2022-12-15T02:42:05.832Z,-2.09
2022-12-15T02:43:09.984Z,-2.09
2022-12-15T02:44:28.393Z,-2.09
2022-12-15T02:45:51.395Z,-2.08
2022-12-15T02:47:04.334Z,-2.08
2022-12-15T02:48:13.708Z,-2.07
2022-12-15T02:49:44.024Z,-2.08
2022-12-15T02:50:59.283Z,-2.08
2022-12-15T02:52:25.477Z,-2.08
2022-12-15T02:55:17.370Z,-1.98
2022-12-15T02:56:39.098Z,-2.12
2022-12-15T02:59:10.879Z,-2.01
2022-12-15T03:00:15.551Z,-2.15
2022-12-15T03:01:28.164Z,-2.14
2022-12-15T03:02:33.947Z,-2.14
2022-12-15T03:03:38.346Z,-2.15
2022-12-15T03:04:43.030Z,-2.14
2022-12-15T03:05:51.236Z,-2.13
2022-12-15T03:07:00.846Z,-2.11
2022-12-15T03:08:02.043Z,-2.08
2022-12-15T03:09:05.237Z,-2.08
2022-12-15T03:10:12.080Z,-2.09
2022-12-15T03:11:15.026Z,-2.11
2022-12-15T03:12:17.893Z,-2.11
2022-12-15T03:13:20.900Z,-2.09
2022-12-15T03:14:24.909Z,-2.08
2022-12-15T03:15:31.802Z,-2.08
2022-12-15T03:16:32.996Z,-2.08
2022-12-15T03:17:35.981Z,-2.07
2022-12-15T03:18:39.400Z,-2.06
2022-12-15T03:19:42.335Z,-2.05
2022-12-15T03:20:45.391Z,-2.03
2022-12-15T03:21:48.273Z,-2.02
2022-12-15T03:22:51.074Z,-2.02
2022-12-15T03:23:53.983Z,-2.03
2022-12-15T03:24:56.818Z,-2.05
2022-12-15T03:25:59.555Z,-2.08
2022-12-15T03:27:02.668Z,-2.13
2022-12-15T03:28:05.467Z,-2.16
2022-12-15T03:29:08.213Z,-2.19
2022-12-15T03:30:13.060Z,-2.21
2022-12-15T03:31:16.066Z,-2.24
2022-12-15T03:32:19.027Z,-2.26
2022-12-15T03:33:22.240Z,-2.29
2022-12-15T03:34:25.683Z,-2.30
2022-12-15T03:35:29.862Z,-2.30
2022-12-15T03:36:33.305Z,-2.30
2022-12-15T03:37:36.248Z,-2.29
2022-12-15T03:38:39.183Z,-2.28
2022-12-15T03:39:41.980Z,-2.29
2022-12-15T03:40:44.806Z,-2.27
2022-12-15T03:41:47.646Z,-2.25
2022-12-15T03:42:50.745Z,-2.22
2022-12-15T03:43:53.848Z,-2.20
2022-12-15T03:44:56.675Z,-2.18
2022-12-15T03:45:59.915Z,-2.15
2022-12-15T03:47:03.832Z,-2.12
2022-12-15T03:48:06.908Z,-2.09
2022-12-15T03:49:09.870Z,-2.06
2022-12-15T03:50:15.885Z,-2.06
2022-12-15T03:51:18.656Z,-2.05
2022-12-15T03:52:21.605Z,-2.02
2022-12-15T03:53:24.554Z,-2.02
2022-12-15T03:54:27.512Z,-2.04
2022-12-15T03:55:30.584Z,-2.04
2022-12-15T03:56:34.087Z,-2.05
2022-12-15T03:57:37.019Z,-2.06
2022-12-15T03:58:40.603Z,-2.07
2022-12-15T03:59:43.578Z,-2.08
2022-12-15T04:00:46.510Z,-2.10
2022-12-15T04:01:49.623Z,-2.12
2022-12-15T04:02:53.256Z,-2.16
2022-12-15T04:04:00.445Z,-2.18
2022-12-15T04:05:01.829Z,-2.21
2022-12-15T04:06:04.746Z,-2.24
2022-12-15T04:07:08.774Z,-2.26
2022-12-15T04:08:12.366Z,-2.27
2022-12-15T04:09:15.326Z,-2.27
2022-12-15T04:10:18.655Z,-2.27
2022-12-15T04:11:21.606Z,-2.28
2022-12-15T04:12:24.542Z,-2.29
2022-12-15T04:13:27.669Z,-2.27
2022-12-15T04:14:30.653Z,-2.28
2022-12-15T04:15:35.181Z,-2.26
2022-12-15T04:16:38.426Z,-2.23
2022-12-15T04:17:42.011Z,-2.20
2022-12-15T04:18:44.847Z,-2.20
2022-12-15T04:20:06.008Z,-2.20
2022-12-15T04:21:09.130Z,-2.19
2022-12-15T04:22:17.652Z,-2.18
2022-12-15T04:23:16.870Z,-2.17
2022-12-15T04:24:38.190Z,-2.16
2022-12-15T04:25:59.644Z,-2.14
2022-12-15T04:27:21.270Z,-2.12
2022-12-15T04:28:42.702Z,-2.10
2022-12-15T04:30:04.137Z,-2.07
2022-12-15T04:31:28.478Z,-2.06
2022-12-15T04:32:50.261Z,-2.02
2022-12-15T04:34:15.195Z,-1.98
2022-12-15T04:35:36.529Z,-1.97
2022-12-15T04:37:00.298Z,-1.95
2022-12-15T04:38:21.563Z,-1.94
2022-12-15T04:39:42.844Z,-1.92
2022-12-15T04:41:04.220Z,-1.92
2022-12-15T04:42:25.644Z,-1.89
2022-12-15T04:43:47.006Z,-1.88
2022-12-15T04:45:14.268Z,-1.86
2022-12-15T04:46:34.367Z,-1.86
2022-12-15T04:47:55.891Z,-1.84
2022-12-15T04:49:17.274Z,-1.83
2022-12-15T04:50:38.803Z,-1.83
2022-12-15T04:52:00.177Z,-1.81
2022-12-15T04:53:33.963Z,-1.79
2022-12-15T04:54:55.460Z,-1.78
2022-12-15T04:56:18.796Z,-1.80
2022-12-15T04:57:39.972Z,-1.82
2022-12-15T04:59:01.430Z,-1.83
2022-12-15T05:00:23.526Z,-1.86
2022-12-15T05:01:45.296Z,-1.88
2022-12-15T05:03:06.410Z,-1.91
2022-12-15T05:04:27.838Z,-1.92
2022-12-15T05:05:48.968Z,-1.92
2022-12-15T05:07:10.518Z,-1.90
2022-12-15T05:08:31.824Z,-1.90
2022-12-15T05:09:53.113Z,-1.88
2022-12-15T05:11:17.359Z,-1.87
2022-12-15T05:12:38.967Z,-1.85
2022-12-15T05:14:00.283Z,-1.83
2022-12-15T05:15:21.477Z,-1.81
2022-12-15T05:16:42.199Z,-1.79
2022-12-15T05:18:18.224Z,-1.76
2022-12-15T05:19:39.031Z,-1.75
2022-12-15T05:21:00.598Z,-1.75
2022-12-15T05:22:21.812Z,-1.78
2022-12-15T05:23:42.630Z,-1.80
2022-12-15T05:25:03.455Z,-1.80
2022-12-15T05:26:24.654Z,-1.79
2022-12-15T05:27:45.594Z,-1.82
2022-12-15T05:29:06.821Z,-1.83
2022-12-15T05:30:28.570Z,-1.83
2022-12-15T05:31:49.958Z,-1.82
2022-12-15T05:32:52.995Z,-1.81
2022-12-15T05:34:02.597Z,-1.80
2022-12-15T05:35:01.438Z,-1.80
2022-12-15T05:36:04.725Z,-1.76
2022-12-15T05:37:07.568Z,-1.75
2022-12-15T05:38:10.485Z,-1.72
2022-12-15T05:39:13.280Z,-1.71
2022-12-15T05:40:16.092Z,-1.70
2022-12-15T05:41:20.117Z,-1.67
2022-12-15T05:42:22.977Z,-1.65
2022-12-15T05:43:26.601Z,-1.63
2022-12-15T05:44:29.585Z,-1.61
2022-12-15T05:45:32.811Z,-1.58
2022-12-15T05:46:36.258Z,-1.57
2022-12-15T05:47:39.124Z,-1.55
2022-12-15T05:48:41.938Z,-1.52
2022-12-15T05:49:44.647Z,-1.50
2022-12-15T05:50:47.431Z,-1.47
2022-12-15T05:51:52.141Z,-1.45
2022-12-15T05:52:56.623Z,-1.42
2022-12-15T05:53:59.834Z,-1.39
2022-12-15T05:55:02.688Z,-1.37
2022-12-15T05:56:08.732Z,-1.34
2022-12-15T05:57:11.452Z,-1.32
2022-12-15T05:58:14.154Z,-1.29
2022-12-15T05:59:18.613Z,-1.28
2022-12-15T06:00:22.071Z,-1.24
2022-12-15T06:01:25.817Z,-1.23
2022-12-15T06:02:28.784Z,-1.21
2022-12-15T06:03:32.046Z,-1.19
2022-12-15T06:04:35.378Z,-1.16
2022-12-15T06:05:39.232Z,-1.15
2022-12-15T06:06:42.627Z,-1.12
2022-12-15T06:07:45.451Z,-1.10
2022-12-15T06:08:50.112Z,-1.10
2022-12-15T06:09:53.062Z,-1.11
2022-12-15T06:10:56.531Z,-1.10
2022-12-15T06:11:59.238Z,-1.08
2022-12-15T06:13:02.018Z,-1.08
2022-12-15T06:14:04.841Z,-1.07
2022-12-15T06:15:08.252Z,-1.05
2022-12-15T06:16:14.500Z,-1.05
2022-12-15T06:17:17.551Z,-1.03
2022-12-15T06:18:20.128Z,-1.03
2022-12-15T06:19:23.002Z,-1.02
2022-12-15T06:20:25.800Z,-1.02
2022-12-15T06:21:31.868Z,-1.00
2022-12-15T06:22:35.035Z,-0.99
2022-12-15T06:23:38.910Z,-0.97
2022-12-15T06:24:41.612Z,-0.94
2022-12-15T06:25:46.274Z,-0.92
2022-12-15T06:26:49.873Z,-0.90
2022-12-15T06:27:55.846Z,-0.88
2022-12-15T06:28:59.327Z,-0.87
2022-12-15T06:30:02.088Z,-0.85
2022-12-15T06:31:07.477Z,-0.83
2022-12-15T06:32:10.377Z,-0.82
2022-12-15T06:33:13.152Z,-0.80
2022-12-15T06:34:17.163Z,-0.78
2022-12-15T06:35:21.224Z,-0.77
2022-12-15T06:36:24.457Z,-0.75
2022-12-15T06:37:27.356Z,-0.73
2022-12-15T06:38:30.538Z,-0.73
2022-12-15T06:39:33.168Z,-0.72
2022-12-15T06:40:38.200Z,-0.70
2022-12-15T06:41:41.506Z,-0.68
2022-12-15T06:42:44.186Z,-0.67
2022-12-15T06:43:55.163Z,-0.67
2022-12-15T06:44:57.806Z,-0.66
2022-12-15T06:46:01.538Z,-0.65
2022-12-15T06:47:04.438Z,-0.65
2022-12-15T06:48:07.030Z,-0.63
2022-12-15T06:49:09.903Z,-0.63
2022-12-15T06:50:12.683Z,-0.61
2022-12-15T06:51:17.342Z,-0.62
2022-12-15T06:52:20.240Z,-0.61
2022-12-15T06:53:24.155Z,-0.61
2022-12-15T06:54:27.528Z,-0.59
2022-12-15T06:55:30.349Z,-0.57
2022-12-15T06:56:38.276Z,-0.55
2022-12-15T06:57:40.903Z,-0.54
2022-12-15T06:58:43.638Z,-0.52
2022-12-15T06:59:46.440Z,-0.50
2022-12-15T07:00:49.558Z,-0.50
2022-12-15T07:01:52.946Z,-0.49
2022-12-15T07:02:56.340Z,-0.48
2022-12-15T07:04:00.929Z,-0.48
2022-12-15T07:05:05.123Z,-0.46
2022-12-15T07:06:11.616Z,-0.43
2022-12-15T07:07:14.894Z,-0.40
2022-12-15T07:08:18.401Z,-0.38
2022-12-15T10:17:51.320Z,1.34
2022-12-15T10:19:16.021Z,1.31
2022-12-15T10:20:23.113Z,1.40
2022-12-15T10:21:28.439Z,1.47
2022-12-15T10:22:37.291Z,1.52
2022-12-15T10:23:40.625Z,1.58
2022-12-15T10:27:17.998Z,1.85
2022-12-15T10:28:51.341Z,1.77
2022-12-15T10:29:58.498Z,1.81
2022-12-15T10:31:11.117Z,1.87
2022-12-15T10:32:20.227Z,1.90
2022-12-15T10:33:24.754Z,1.93
2022-12-15T10:34:31.239Z,1.96
2022-12-15T10:35:35.658Z,1.98
2022-12-15T10:36:42.731Z,2.01
2022-12-15T10:37:46.409Z,2.03
2022-12-15T10:38:50.610Z,2.06
2022-12-15T10:39:53.793Z,2.09
2022-12-15T10:41:06.987Z,2.16
2022-12-15T10:42:24.416Z,2.21
2022-12-15T10:43:31.511Z,2.26
2022-12-15T10:44:37.671Z,2.28
2022-12-15T10:45:41.232Z,2.30
2022-12-15T10:46:44.405Z,2.33
2022-12-15T10:47:51.063Z,2.35
2022-12-15T10:49:09.752Z,2.37
2022-12-15T10:50:24.209Z,2.39
2022-12-15T10:51:29.783Z,2.43
2022-12-15T10:52:36.176Z,2.44
2022-12-15T10:53:50.351Z,2.47
2022-12-15T10:54:53.255Z,2.49
2022-12-15T10:56:00.980Z,2.50
2022-12-15T10:57:22.975Z,2.48
2022-12-15T10:58:26.078Z,2.48
2022-12-15T10:59:32.045Z,2.45
2022-12-15T11:00:35.586Z,2.43
2022-12-15T11:01:38.714Z,2.43
2022-12-15T11:02:42.568Z,2.43
2022-12-15T11:03:46.368Z,2.44
2022-12-15T11:05:01.966Z,2.43
2022-12-15T11:06:23.475Z,2.42
2022-12-15T11:07:30.181Z,2.40
2022-12-15T11:08:33.173Z,2.41
2022-12-15T11:09:38.233Z,2.40
2022-12-15T11:11:14.124Z,2.42
2022-12-15T11:12:38.834Z,2.42
2022-12-15T11:13:43.528Z,2.44
2022-12-15T11:14:51.026Z,2.44
2022-12-15T11:15:55.999Z,2.46
2022-12-15T11:16:59.389Z,2.45
2022-12-15T11:18:05.919Z,2.47
2022-12-15T11:19:12.462Z,2.50
2022-12-15T11:20:19.007Z,2.51
2022-12-15T11:21:31.795Z,2.51
2022-12-15T11:23:02.147Z,2.50
2022-12-15T11:24:08.716Z,2.53
2022-12-15T11:25:18.235Z,2.54
2022-12-15T11:26:58.471Z,2.53
2022-12-15T11:28:05.356Z,2.54
2022-12-15T11:29:27.424Z,2.52
2022-12-15T11:30:39.769Z,2.51
2022-12-15T11:31:44.064Z,2.51
2022-12-15T11:32:58.025Z,2.52
2022-12-15T11:34:01.203Z,2.52
2022-12-15T11:35:08.057Z,2.54
2022-12-15T11:37:40.588Z,2.69
2022-12-15T11:38:53.168Z,2.60
2022-12-15T11:40:35.763Z,2.62
2022-12-15T11:41:42.239Z,2.64
2022-12-15T11:43:06.634Z,2.66
2022-12-15T11:44:25.056Z,2.67
2022-12-15T11:45:37.645Z,2.66
2022-12-15T11:46:50.804Z,2.68
2022-12-15T11:48:03.281Z,2.68
2022-12-15T11:49:27.916Z,2.68
2022-12-15T11:50:37.491Z,2.69
2022-12-15T11:52:05.460Z,2.68
2022-12-15T11:53:43.654Z,2.68
2022-12-15T11:55:07.072Z,2.70
2022-12-15T11:56:26.350Z,2.68
2022-12-15T11:57:41.746Z,2.67
2022-12-15T11:59:07.814Z,2.64
2022-12-15T12:00:19.840Z,2.64
2022-12-15T12:01:55.352Z,2.64
2022-12-15T12:02:56.589Z,2.65
2022-12-15T12:04:06.047Z,2.66
2022-12-15T12:05:18.506Z,2.65
2022-12-15T12:06:25.207Z,2.65
2022-12-15T12:07:43.539Z,2.64
2022-12-15T12:09:06.341Z,2.64
2022-12-15T12:10:47.104Z,2.66
2022-12-15T12:12:21.051Z,2.66
2022-12-15T12:13:30.297Z,2.67
2022-12-15T12:14:39.900Z,2.67
2022-12-15T12:16:10.723Z,2.68
2022-12-15T12:17:35.618Z,2.69
2022-12-15T12:18:50.355Z,2.68
2022-12-15T12:19:56.388Z,2.65
2022-12-15T12:21:09.038Z,2.66
2022-12-15T12:22:15.435Z,2.64
2022-12-15T12:23:27.763Z,2.64
2022-12-15T12:24:34.470Z,2.62
2022-12-15T12:27:10.562Z,2.63
2022-12-15T12:28:17.162Z,2.63
2022-12-15T12:29:32.287Z,2.63
2022-12-15T12:30:41.858Z,2.63
2022-12-15T12:32:12.903Z,2.64
2022-12-15T12:33:29.477Z,2.64
2022-12-15T12:34:54.544Z,2.66
2022-12-15T12:36:11.490Z,2.64
2022-12-15T12:37:37.574Z,2.61
2022-12-15T12:38:50.752Z,2.60
2022-12-15T12:39:54.932Z,2.59
2022-12-15T12:41:22.847Z,2.58
2022-12-15T12:42:41.478Z,2.57
2022-12-15T12:43:50.268Z,2.58
2022-12-15T12:44:53.918Z,2.58
2022-12-15T12:46:03.478Z,2.58
2022-12-15T12:47:22.310Z,2.58
2022-12-15T12:48:41.073Z,2.59
2022-12-15T12:49:50.116Z,2.59
2022-12-15T12:50:56.020Z,2.58
2022-12-15T12:52:03.107Z,2.59
2022-12-15T12:53:06.102Z,2.58
2022-12-15T12:54:35.556Z,2.57
2022-12-15T12:55:40.932Z,2.56
2022-12-15T12:56:45.417Z,2.54
2022-12-15T12:57:50.240Z,2.55
2022-12-15T12:58:53.203Z,2.55
2022-12-15T13:00:05.762Z,2.55
2022-12-15T13:01:17.955Z,2.55
2022-12-15T13:02:25.053Z,2.55
2022-12-15T13:03:28.146Z,2.55
2022-12-15T13:04:37.925Z,2.54
2022-12-15T13:05:42.290Z,2.54
2022-12-15T13:06:49.102Z,2.54
2022-12-15T13:07:58.220Z,2.53
2022-12-15T13:09:20.370Z,2.54
2022-12-15T13:10:25.223Z,2.54
2022-12-15T13:11:53.107Z,2.54
2022-12-15T13:12:58.765Z,2.53
2022-12-15T13:14:03.024Z,2.54
2022-12-15T13:15:12.677Z,2.53
2022-12-15T13:16:27.035Z,2.53
2022-12-15T13:17:36.735Z,2.53
2022-12-15T13:19:04.338Z,2.53
2022-12-15T13:20:20.416Z,2.53
2022-12-15T13:21:44.999Z,2.52
2022-12-15T13:22:50.537Z,2.48
2022-12-15T13:23:57.368Z,2.47
2022-12-15T13:25:01.187Z,2.46
2022-12-15T13:26:07.924Z,2.47
2022-12-15T13:27:14.718Z,2.47
2022-12-15T13:28:42.348Z,2.50
2022-12-15T13:30:03.621Z,2.51
2022-12-15T13:31:28.312Z,2.51
2022-12-15T13:32:40.810Z,2.51
2022-12-15T13:33:53.507Z,2.48
2022-12-15T13:34:59.203Z,2.47
2022-12-15T13:36:02.376Z,2.45
2022-12-15T13:37:07.901Z,2.42
2022-12-15T13:38:18.711Z,2.41
2022-12-15T13:39:31.025Z,2.40
2022-12-15T13:40:38.059Z,2.40
2022-12-15T15:03:07.111Z,2.63
2022-12-15T19:21:40.029Z,1.12
2022-12-15T19:22:44.808Z,1.11
2022-12-15T19:23:47.973Z,1.23
2022-12-15T19:24:53.640Z,1.29
2022-12-15T19:25:56.591Z,1.35
2022-12-15T19:26:59.804Z,1.40
2022-12-15T19:28:02.867Z,1.45
2022-12-15T19:30:34.796Z,1.67
2022-12-15T19:31:37.600Z,1.60
2022-12-15T19:32:40.641Z,1.66
2022-12-15T19:33:43.617Z,1.70
2022-12-15T19:34:46.679Z,1.74
2022-12-15T19:35:51.136Z,1.77
2022-12-15T19:36:54.459Z,1.81
2022-12-15T19:37:58.745Z,1.87
2022-12-15T19:39:01.770Z,1.91
2022-12-15T19:40:06.229Z,1.95
2022-12-15T19:41:15.138Z,1.99
2022-12-15T19:42:21.169Z,2.02
2022-12-15T19:43:24.814Z,2.06
2022-12-15T19:44:27.941Z,2.09
2022-12-15T19:45:32.098Z,2.14
2022-12-15T19:46:37.543Z,2.17
2022-12-15T19:47:40.509Z,2.20
2022-12-15T19:48:43.534Z,2.24
2022-12-15T19:49:46.367Z,2.25
2022-12-15T19:50:51.312Z,2.28
2022-12-15T19:51:54.941Z,2.30
2022-12-15T19:53:00.498Z,2.32
2022-12-15T19:54:03.797Z,2.34
2022-12-15T19:55:08.978Z,2.36
2022-12-15T19:56:21.292Z,2.38
2022-12-15T19:57:24.303Z,2.39
2022-12-15T19:58:33.131Z,2.41
2022-12-15T19:59:36.527Z,2.43
2022-12-15T20:00:39.676Z,2.46
2022-12-15T20:01:42.676Z,2.48
2022-12-15T20:02:45.884Z,2.51
2022-12-15T20:03:51.976Z,2.54
2022-12-15T20:04:54.950Z,2.56
2022-12-15T20:05:59.317Z,2.59
2022-12-15T20:07:03.674Z,2.62
2022-12-15T20:08:06.689Z,2.63
2022-12-15T20:09:13.225Z,2.67
2022-12-15T20:10:31.304Z,2.69
2022-12-15T20:11:32.415Z,2.70
2022-12-15T20:12:35.545Z,2.70
2022-12-15T20:13:38.473Z,2.71
2022-12-15T20:14:42.316Z,2.72
2022-12-15T20:15:45.663Z,2.73
2022-12-15T20:16:49.800Z,2.74
2022-12-15T20:17:56.130Z,2.75
2022-12-15T20:18:59.914Z,2.75
2022-12-15T20:20:03.026Z,2.77
2022-12-15T20:21:06.245Z,2.77
2022-12-15T20:22:15.086Z,2.79
2022-12-15T20:23:23.040Z,2.79
2022-12-15T20:24:26.790Z,2.79
2022-12-15T20:25:35.038Z,2.79
2022-12-15T20:26:38.823Z,2.80
2022-12-15T20:27:42.023Z,2.79
2022-12-15T20:28:45.329Z,2.79
2022-12-15T20:29:48.481Z,2.77
2022-12-15T20:30:52.808Z,2.79
2022-12-15T20:31:57.171Z,2.77
2022-12-15T20:33:02.213Z,2.79
2022-12-15T20:34:05.094Z,2.77
2022-12-15T20:35:09.201Z,2.79
2022-12-15T20:36:25.089Z,2.78
2022-12-15T20:37:29.901Z,2.77
2022-12-15T20:38:33.784Z,2.77
2022-12-15T20:39:37.376Z,2.77
2022-12-15T20:40:40.267Z,2.77
2022-12-15T20:41:43.347Z,2.75
2022-12-15T20:42:46.687Z,2.76
2022-12-15T20:43:50.827Z,2.76
2022-12-15T20:44:54.449Z,2.75
2022-12-15T20:46:07.264Z,2.76
2022-12-15T20:47:16.904Z,2.73
2022-12-15T20:48:20.040Z,2.74
2022-12-15T20:49:23.971Z,2.74
2022-12-15T20:50:36.841Z,2.73
2022-12-15T20:51:39.862Z,2.74
2022-12-15T20:52:43.016Z,2.74
2022-12-15T20:53:46.353Z,2.72
2022-12-15T20:54:50.556Z,2.72
2022-12-15T20:55:55.690Z,2.72
2022-12-15T20:56:58.887Z,2.72
2022-12-15T20:58:01.927Z,2.72
2022-12-15T20:59:05.671Z,2.72
2022-12-15T21:00:09.424Z,2.71
2022-12-15T21:01:16.023Z,2.71
2022-12-15T21:02:22.276Z,2.72
2022-12-15T21:03:29.033Z,2.72
2022-12-15T21:04:32.371Z,2.72
2022-12-15T21:05:35.333Z,2.72
2022-12-15T21:06:38.654Z,2.72
2022-12-15T21:07:41.796Z,2.72
2022-12-15T21:08:44.832Z,2.72
2022-12-15T21:09:47.814Z,2.71
2022-12-15T21:10:52.085Z,2.69
2022-12-15T21:11:55.189Z,2.70
2022-12-15T21:12:58.133Z,2.69
2022-12-15T21:14:02.969Z,2.69
2022-12-15T21:15:18.103Z,2.69
2022-12-15T21:16:24.127Z,2.68
2022-12-15T21:17:27.242Z,2.70
2022-12-15T21:19:10.722Z,2.70
2022-12-15T21:19:35.235Z,2.69
2022-12-15T21:20:39.940Z,2.72
2022-12-15T21:21:45.835Z,2.73
2022-12-15T21:22:48.998Z,2.74
2022-12-15T21:23:54.118Z,2.74
2022-12-15T21:24:59.876Z,2.75
2022-12-15T21:26:03.450Z,2.76
2022-12-15T21:27:08.143Z,2.77
2022-12-15T21:28:11.496Z,2.76
2022-12-15T21:29:20.510Z,2.78
2022-12-15T21:30:25.166Z,2.77
2022-12-15T21:31:28.122Z,2.77
2022-12-15T21:32:31.236Z,2.77
2022-12-15T21:33:34.298Z,2.77
2022-12-15T21:34:37.644Z,2.75
2022-12-15T21:35:41.803Z,2.75
2022-12-15T21:36:48.300Z,2.74
2022-12-15T21:37:52.021Z,2.73
2022-12-15T21:38:55.075Z,2.73
2022-12-15T21:39:59.035Z,2.72
2022-12-15T21:41:05.289Z,2.72
2022-12-15T21:42:15.439Z,2.72
2022-12-15T21:43:21.680Z,2.72
2022-12-15T21:44:24.668Z,2.72
2022-12-15T21:45:27.644Z,2.72
2022-12-15T21:46:30.540Z,2.72
2022-12-15T21:47:52.276Z,2.70
2022-12-15T21:49:15.139Z,2.70
2022-12-15T21:50:19.402Z,2.68
2022-12-15T21:51:22.494Z,2.67
2022-12-15T21:52:27.071Z,2.65
2022-12-15T21:53:29.999Z,2.65
2022-12-15T21:54:35.437Z,2.64
2022-12-15T21:55:38.923Z,2.64
2022-12-15T21:56:41.991Z,2.64
2022-12-15T21:57:45.179Z,2.62
2022-12-15T21:58:52.215Z,2.62
2022-12-15T21:59:55.390Z,2.61
2022-12-15T22:01:00.208Z,2.61
2022-12-15T22:02:22.062Z,2.60
2022-12-15T22:03:25.125Z,2.60
2022-12-15T22:04:31.344Z,2.60
2022-12-15T22:05:34.379Z,2.58
2022-12-15T22:06:37.650Z,2.58
2022-12-15T22:07:40.765Z,2.57
2022-12-15T22:08:43.864Z,2.57
2022-12-15T22:09:46.988Z,2.56
2022-12-15T22:10:51.046Z,2.57
2022-12-15T22:11:56.303Z,2.56
2022-12-15T22:12:59.913Z,2.56
2022-12-15T22:14:05.598Z,2.55
2022-12-15T22:15:18.022Z,2.55
2022-12-15T22:16:21.373Z,2.55
2022-12-15T22:17:24.559Z,2.55
2022-12-15T22:18:27.502Z,2.54
2022-12-15T22:19:30.594Z,2.54
2022-12-15T22:20:33.560Z,2.54
2022-12-15T22:21:36.744Z,2.51
2022-12-15T22:22:39.701Z,2.52
2022-12-15T22:23:42.844Z,2.51
2022-12-15T22:24:45.874Z,2.52
2022-12-15T22:25:52.099Z,2.54
2022-12-15T22:26:56.843Z,2.54
2022-12-15T22:27:59.927Z,2.56
2022-12-15T22:29:15.635Z,2.58
2022-12-15T22:30:22.206Z,2.59
2022-12-15T22:31:25.929Z,2.61
2022-12-15T22:32:29.846Z,2.62
2022-12-15T22:33:32.911Z,2.64
2022-12-15T22:34:36.984Z,2.65
2022-12-15T22:35:39.848Z,2.67
2022-12-15T22:36:43.196Z,2.69
2022-12-15T22:37:48.297Z,2.71
2022-12-15T22:38:51.039Z,2.72
2022-12-15T22:39:53.889Z,2.74
2022-12-15T22:40:59.007Z,2.76
2022-12-15T22:42:04.184Z,2.77
2022-12-15T22:43:10.897Z,2.79
2022-12-15T22:44:22.920Z,2.81
2022-12-15T22:45:25.874Z,2.82
2022-12-15T22:46:28.975Z,2.84
2022-12-15T22:47:35.281Z,2.84
2022-12-15T22:48:40.459Z,2.86
2022-12-15T22:49:43.656Z,2.87
2022-12-15T22:50:47.104Z,2.88
2022-12-15T22:51:50.209Z,2.89
2022-12-15T22:52:55.166Z,2.90
2022-12-15T22:53:58.237Z,2.91
2022-12-15T22:55:01.161Z,2.91
2022-12-15T22:56:07.834Z,2.92
2022-12-15T22:57:28.348Z,2.92
2022-12-15T22:58:40.967Z,2.92
2022-12-15T22:59:47.666Z,2.92
2022-12-15T23:00:54.124Z,2.92
2022-12-15T23:01:58.012Z,2.92
2022-12-15T23:03:01.724Z,2.92
2022-12-15T23:04:05.622Z,2.92
2022-12-15T23:05:11.097Z,2.92
2022-12-15T23:06:14.202Z,2.93
2022-12-15T23:07:17.134Z,2.94
2022-12-15T23:08:20.071Z,2.93
2022-12-15T23:09:23.081Z,2.93
2022-12-15T23:10:44.387Z,2.94
2022-12-15T23:11:47.435Z,2.93
2022-12-15T23:12:52.151Z,2.92
2022-12-15T23:13:55.095Z,2.92
2022-12-15T23:15:19.995Z,2.92
2022-12-15T23:16:21.921Z,2.91
2022-12-15T23:17:25.139Z,2.92
2022-12-15T23:18:28.237Z,2.92
2022-12-15T23:19:31.300Z,2.90
2022-12-15T23:20:34.813Z,2.89
2022-12-15T23:21:37.773Z,2.89
2022-12-15T23:22:40.832Z,2.88
2022-12-15T23:23:44.580Z,2.87
2022-12-15T23:24:47.592Z,2.87
2022-12-15T23:25:50.638Z,2.86
2022-12-15T23:26:53.683Z,2.85
2022-12-15T23:27:56.545Z,2.84
2022-12-15T23:28:59.707Z,2.84
2022-12-15T23:30:02.710Z,2.84
2022-12-15T23:31:06.115Z,2.83
2022-12-15T23:32:09.158Z,2.82
2022-12-15T23:33:12.146Z,2.83
2022-12-15T23:34:15.178Z,2.83
2022-12-15T23:35:18.507Z,2.83
2022-12-15T23:36:21.678Z,2.82
2022-12-15T23:37:24.723Z,2.82
2022-12-15T23:38:28.108Z,2.82
2022-12-15T23:39:31.160Z,2.83
2022-12-15T23:40:34.227Z,2.82
2022-12-15T23:41:37.270Z,2.82
2022-12-15T23:42:40.305Z,2.82
2022-12-15T23:43:43.557Z,2.81
2022-12-15T23:44:46.543Z,2.80
2022-12-15T23:46:04.841Z,2.82
2022-12-15T23:47:08.084Z,2.81
2022-12-15T23:48:13.656Z,2.80
2022-12-15T23:49:16.847Z,2.79
2022-12-15T23:50:19.998Z,2.80
2022-12-15T23:51:23.111Z,2.80
2022-12-15T23:52:28.161Z,2.80
2022-12-15T23:53:32.449Z,2.80
2022-12-15T23:54:35.642Z,2.80
2022-12-15T23:55:38.586Z,2.82
2022-12-15T23:56:41.696Z,2.82
2022-12-15T23:57:44.986Z,2.82
2022-12-15T23:58:57.082Z,2.83
